createdAt,value
2022-10-15T00:03:09.352Z,98419.75
2022-10-15T00:08:14.536Z,98153.00
2022-10-15T00:13:19.077Z,98436.56
2022-10-15T00:18:23.915Z,98145.34
2022-10-15T00:23:30.199Z,98166.84
2022-10-15T00:28:34.762Z,98336.94
2022-10-15T00:33:39.600Z,98145.81
2022-10-15T00:38:45.775Z,98420.56
2022-10-15T00:43:51.487Z,98332.41
2022-10-15T00:48:59.519Z,98276.31
2022-10-15T00:54:06.082Z,98180.44
2022-10-15T00:59:10.983Z,98365.81
2022-10-15T01:04:15.272Z,98304.16
2022-10-15T01:09:20.943Z,98299.34
2022-10-15T01:14:33.299Z,98111.66
2022-10-15T01:20:05.287Z,98172.94
2022-10-15T01:25:19.995Z,98100.72
2022-10-15T01:30:30.431Z,98241.75
2022-10-15T01:35:45.988Z,98134.53
2022-10-15T01:40:52.986Z,98194.00
2022-10-15T01:46:01.041Z,98196.88
2022-10-15T01:51:32.271Z,98324.91
2022-10-15T01:56:37.895Z,98304.38
2022-10-15T02:01:46.659Z,98352.53
2022-10-15T02:06:54.302Z,98274.03
2022-10-15T02:12:04.658Z,98335.16
2022-10-15T02:17:10.885Z,98327.31
2022-10-15T02:22:16.981Z,98252.69
2022-10-15T02:27:22.654Z,98285.38
2022-10-15T02:32:28.696Z,98300.84
2022-10-15T02:37:33.329Z,98297.34
2022-10-15T02:42:37.366Z,98246.47
2022-10-15T02:47:46.359Z,98179.06
2022-10-15T02:52:50.030Z,98230.72
2022-10-15T02:57:54.558Z,98278.53
2022-10-15T03:02:59.692Z,98241.19
2022-10-15T03:08:03.521Z,98239.31
2022-10-15T03:13:08.377Z,98280.28
2022-10-15T03:18:21.853Z,98241.69
2022-10-15T03:23:25.864Z,98192.53
2022-10-15T03:28:38.964Z,98253.00
2022-10-15T03:33:44.786Z,98264.59
2022-10-15T03:38:49.117Z,98051.66
2022-10-15T03:43:52.881Z,98276.84
2022-10-15T03:48:58.208Z,98152.19
2022-10-15T03:54:01.748Z,98242.97
2022-10-15T03:59:05.228Z,98234.31
2022-10-15T04:04:12.172Z,98112.66
2022-10-15T04:09:16.675Z,98172.47
2022-10-15T04:14:20.675Z,98171.75
2022-10-15T04:19:26.216Z,98218.50
2022-10-15T04:24:38.697Z,98193.59
2022-10-15T04:29:42.737Z,98137.88
2022-10-15T04:34:52.511Z,98122.66
2022-10-15T04:40:05.020Z,98200.84
2022-10-15T04:45:10.366Z,98217.16
2022-10-15T04:50:16.959Z,98202.72
2022-10-15T04:55:39.495Z,98168.03
2022-10-15T05:00:44.632Z,98206.72
2022-10-15T05:06:10.507Z,98200.56
2022-10-15T05:11:17.691Z,98198.44
2022-10-15T05:16:24.036Z,98140.41
2022-10-15T05:21:31.582Z,97935.72
2022-10-15T05:26:39.084Z,98117.66
2022-10-15T05:31:42.917Z,98206.69
2022-10-15T05:36:55.425Z,98151.09
2022-10-15T05:41:58.867Z,98202.50
2022-10-15T05:47:13.043Z,98167.25
2022-10-15T05:52:19.262Z,98190.31
2022-10-15T05:57:43.009Z,98192.41
2022-10-15T06:02:46.515Z,98200.34
2022-10-15T06:07:51.659Z,98177.16
2022-10-15T06:12:55.660Z,98226.16
2022-10-15T06:17:59.101Z,98200.59
2022-10-15T06:23:05.169Z,98163.88
2022-10-15T06:28:09.672Z,98154.59
2022-10-15T06:33:18.488Z,98231.25
2022-10-15T06:38:25.100Z,98229.59
2022-10-15T06:43:31.226Z,98149.31
2022-10-15T06:48:37.780Z,98197.69
2022-10-15T06:53:43.943Z,98215.94
2022-10-15T06:58:49.000Z,98213.88
2022-10-15T07:03:53.116Z,98105.94
2022-10-15T07:08:58.358Z,98215.69
2022-10-15T07:14:02.699Z,98238.47
2022-10-15T07:19:06.191Z,98241.72
2022-10-15T07:24:11.196Z,98175.09
2022-10-15T07:29:14.903Z,98188.50
2022-10-15T07:34:19.035Z,98257.84
2022-10-15T07:39:23.820Z,98194.13
2022-10-15T07:44:27.143Z,98274.47
2022-10-15T07:49:30.468Z,98213.88
2022-10-15T07:54:35.467Z,98266.66
2022-10-15T07:59:38.743Z,98269.03
2022-10-15T08:04:42.145Z,98224.59
2022-10-15T08:14:50.119Z,98275.72
2022-10-15T08:19:55.443Z,98281.59
2022-10-15T08:25:00.250Z,98150.22
2022-10-15T08:30:03.636Z,98099.19
2022-10-15T08:35:07.662Z,98287.06
2022-10-15T08:40:14.223Z,98287.06
2022-10-15T08:45:19.722Z,98274.19
2022-10-15T08:50:31.382Z,98266.00
2022-10-15T08:55:40.110Z,98281.38
2022-10-15T09:00:45.783Z,98221.47
2022-10-15T09:05:53.316Z,98274.13
2022-10-15T09:11:01.873Z,98281.88
2022-10-15T09:16:07.394Z,98262.38
2022-10-15T09:21:11.863Z,98130.94
2022-10-15T09:26:24.495Z,98288.38
2022-10-15T09:31:31.586Z,98280.03
2022-10-15T09:36:38.818Z,98283.09
2022-10-15T09:41:53.802Z,98289.63
2022-10-15T09:46:57.143Z,98296.31
2022-10-15T09:52:03.709Z,98298.88
2022-10-15T09:57:10.834Z,98288.84
2022-10-15T10:02:21.330Z,98304.97
2022-10-15T10:07:35.209Z,98306.34
2022-10-15T10:12:39.917Z,98303.13
2022-10-15T10:17:53.412Z,98283.38
2022-10-15T10:22:57.982Z,98276.75
2022-10-15T10:28:07.568Z,98324.09
2022-10-15T10:33:14.621Z,98288.03
2022-10-15T10:38:22.209Z,98308.13
2022-10-15T10:43:29.376Z,98312.84
2022-10-15T10:48:41.300Z,98307.91
2022-10-15T10:53:54.499Z,98297.78
2022-10-15T10:59:02.016Z,98283.81
2022-10-15T11:09:19.996Z,98291.78
2022-10-15T11:14:32.329Z,98286.69
2022-10-15T11:25:14.848Z,98301.78
2022-10-15T11:30:33.554Z,98302.84
2022-10-15T11:35:59.049Z,98281.19
2022-10-15T11:41:14.836Z,98152.00
2022-10-15T11:46:24.999Z,98292.19
2022-10-15T11:51:34.728Z,98292.75
2022-10-15T11:56:41.643Z,98285.25
2022-10-15T12:01:50.703Z,98257.91
2022-10-15T12:06:55.695Z,98234.94
2022-10-15T12:12:04.786Z,98222.16
2022-10-15T12:17:16.936Z,98271.31
2022-10-15T12:22:35.078Z,98262.31
2022-10-15T12:27:38.922Z,98179.81
2022-10-15T12:32:46.482Z,98238.44
2022-10-15T12:37:51.140Z,98250.28
2022-10-15T12:42:57.193Z,98265.97
2022-10-15T12:48:36.365Z,98255.66
2022-10-15T12:53:43.345Z,98242.91
2022-10-15T12:58:47.540Z,98268.09
2022-10-15T13:03:56.195Z,98103.31
2022-10-15T13:09:06.437Z,98198.66
2022-10-15T13:14:20.047Z,98230.41
2022-10-15T13:19:28.123Z,98267.91
2022-10-15T13:24:43.208Z,98270.03
2022-10-15T13:30:02.059Z,98257.44
2022-10-15T13:35:12.737Z,98148.78
2022-10-15T13:40:21.020Z,98261.00
2022-10-15T13:45:24.302Z,98277.53
2022-10-15T13:50:30.939Z,98210.34
2022-10-15T13:55:36.393Z,98290.44
2022-10-15T14:00:39.915Z,98237.22
2022-10-15T14:05:45.576Z,98199.47
2022-10-15T14:10:49.732Z,98199.09
2022-10-15T14:15:57.982Z,98251.63
2022-10-15T14:21:03.283Z,98300.41
2022-10-15T14:26:06.846Z,98299.81
2022-10-15T14:31:10.258Z,98305.88
2022-10-15T14:36:25.477Z,98297.09
2022-10-15T14:41:30.902Z,98270.94
2022-10-15T14:46:40.576Z,98281.84
2022-10-15T14:51:45.378Z,98298.72
2022-10-15T14:56:50.618Z,98181.66
2022-10-15T15:01:58.520Z,98302.56
2022-10-15T15:07:13.432Z,98304.97
2022-10-15T15:12:26.987Z,98311.63
2022-10-15T15:17:31.900Z,98236.78
2022-10-15T15:22:37.893Z,98319.91
2022-10-15T15:27:41.445Z,98285.75
2022-10-15T15:32:44.945Z,98294.78
2022-10-15T15:37:49.860Z,98317.84
2022-10-15T15:42:53.313Z,98301.50
2022-10-15T15:47:58.898Z,98317.72
2022-10-15T15:53:04.476Z,98327.78
2022-10-15T15:58:07.864Z,98252.75
2022-10-15T16:03:13.096Z,98335.19
2022-10-15T16:08:18.269Z,98340.34
2022-10-15T16:13:23.431Z,98326.72
2022-10-15T16:18:26.783Z,98349.13
2022-10-15T16:23:31.670Z,98370.06
2022-10-15T16:28:35.077Z,98360.25
2022-10-15T16:33:38.568Z,98345.69
2022-10-15T16:38:44.491Z,98399.50
2022-10-15T16:43:48.855Z,98406.16
2022-10-15T16:48:55.803Z,98414.84
2022-10-15T16:54:00.696Z,98413.34
2022-10-15T16:59:04.027Z,98421.03
2022-10-15T17:04:07.370Z,98428.19
2022-10-15T17:09:12.199Z,98358.50
2022-10-15T17:14:16.967Z,98429.03
2022-10-15T17:19:23.717Z,98344.31
2022-10-15T17:24:28.528Z,98419.50
2022-10-15T17:29:33.603Z,98364.81
2022-10-15T17:34:37.260Z,98388.91
2022-10-15T17:39:42.296Z,98434.66
2022-10-15T17:44:45.752Z,98348.09
2022-10-15T17:49:49.311Z,98440.69
2022-10-15T17:54:54.318Z,98428.47
2022-10-15T17:59:57.879Z,98394.88
2022-10-15T18:05:02.172Z,98407.22
2022-10-15T18:10:09.434Z,98380.00
2022-10-15T18:15:12.907Z,98437.69
2022-10-15T18:20:16.474Z,98476.94
2022-10-15T18:25:23.568Z,98436.31
2022-10-15T18:30:27.010Z,98469.72
2022-10-15T18:35:30.500Z,98454.81
2022-10-15T18:40:40.058Z,98412.38
2022-10-15T18:45:47.381Z,98442.31
2022-10-15T18:50:53.513Z,98433.41
2022-10-15T18:55:59.065Z,98481.22
2022-10-15T19:01:11.889Z,98502.75
2022-10-15T19:06:15.624Z,98485.38
2022-10-15T19:11:23.882Z,98410.38
2022-10-15T19:16:27.365Z,98482.19
2022-10-15T19:21:37.597Z,98484.00
2022-10-15T19:26:42.712Z,98441.50
2022-10-15T19:31:48.125Z,98502.06
2022-10-15T19:36:51.952Z,98484.63
2022-10-15T19:41:56.868Z,98447.00
2022-10-15T19:47:00.212Z,98499.63
2022-10-15T19:52:03.601Z,98537.84
2022-10-15T19:57:08.928Z,98512.75
2022-10-15T20:02:14.932Z,98465.53
2022-10-15T20:07:18.413Z,98491.94
2022-10-15T20:12:24.663Z,98422.13
2022-10-15T20:17:29.186Z,98426.56
2022-10-15T20:22:33.150Z,98464.59
2022-10-15T20:27:38.998Z,98449.88
2022-10-15T20:38:51.981Z,98552.41
2022-10-15T20:44:25.930Z,98549.44
2022-10-15T20:49:33.399Z,98555.28
2022-10-15T20:55:51.545Z,98562.44
2022-10-15T21:00:56.513Z,98566.78
2022-10-15T21:06:00.266Z,98562.50
2022-10-15T21:11:04.817Z,98545.56
2022-10-15T21:16:10.771Z,98545.72
2022-10-15T21:21:15.497Z,98577.22
2022-10-15T21:26:19.709Z,98578.69
2022-10-15T21:31:25.470Z,98507.91
2022-10-15T21:36:30.373Z,98583.31
2022-10-15T21:41:35.707Z,98456.16
2022-10-15T21:46:42.850Z,98537.72
2022-10-15T21:51:46.420Z,98512.19
2022-10-15T21:56:50.703Z,98539.91
2022-10-15T22:01:56.072Z,98571.88
2022-10-15T22:06:59.603Z,98601.13
2022-10-15T22:12:03.267Z,98589.81
2022-10-15T22:17:08.132Z,98597.09
2022-10-15T22:22:11.664Z,98546.72
2022-10-15T22:27:15.188Z,98553.66
2022-10-15T22:32:20.253Z,98613.47
2022-10-15T22:37:23.679Z,98551.47
2022-10-15T22:42:27.575Z,98617.78
2022-10-15T22:47:32.968Z,98601.50
2022-10-15T22:52:41.631Z,98604.81
